sensor_id;sensor_type;location;lat;lon;timestamp;P1;durP1;ratioP1;P2;durP2;ratioP2
31402;SDS011;18039;52.188;21.024;2023-02-02T00:01:30;17.83;;;9.13;;
31402;SDS011;18039;52.188;21.024;2023-02-02T00:03:58;15.43;;;9.25;;
31402;SDS011;18039;52.188;21.024;2023-02-02T00:06:26;16.92;;;9.85;;
31402;SDS011;18039;52.188;21.024;2023-02-02T00:08:55;21.80;;;9.77;;
31402;SDS011;18039;52.188;21.024;2023-02-02T00:11:24;17.95;;;9.23;;
31402;SDS011;18039;52.188;21.024;2023-02-02T00:13:52;15.00;;;8.45;;
31402;SDS011;18039;52.188;21.024;2023-02-02T00:19:00;19.08;;;8.75;;
31402;SDS011;18039;52.188;21.024;2023-02-02T00:21:29;15.55;;;9.38;;
31402;SDS011;18039;52.188;21.024;2023-02-02T00:23:57;16.15;;;8.82;;
31402;SDS011;18039;52.188;21.024;2023-02-02T00:26:24;15.15;;;9.15;;
31402;SDS011;18039;52.188;21.024;2023-02-02T00:28:51;17.52;;;8.80;;
31402;SDS011;18039;52.188;21.024;2023-02-02T00:31:18;17.80;;;8.73;;
31402;SDS011;18039;52.188;21.024;2023-02-02T00:33:46;15.48;;;8.98;;
31402;SDS011;18039;52.188;21.024;2023-02-02T00:36:14;16.13;;;8.35;;
31402;SDS011;18039;52.188;21.024;2023-02-02T00:38:43;16.58;;;9.07;;
31402;SDS011;18039;52.188;21.024;2023-02-02T00:41:10;15.82;;;8.73;;
31402;SDS011;18039;52.188;21.024;2023-02-02T00:43:37;14.50;;;9.00;;
31402;SDS011;18039;52.188;21.024;2023-02-02T00:46:04;14.02;;;8.80;;
31402;SDS011;18039;52.188;21.024;2023-02-02T00:48:32;15.63;;;7.95;;
31402;SDS011;18039;52.188;21.024;2023-02-02T00:50:59;14.60;;;8.30;;
31402;SDS011;18039;52.188;21.024;2023-02-02T00:53:28;16.02;;;9.05;;
31402;SDS011;18039;52.188;21.024;2023-02-02T00:55:55;14.70;;;9.20;;
31402;SDS011;18039;52.188;21.024;2023-02-02T00:58:23;18.48;;;9.57;;
31402;SDS011;18039;52.188;21.024;2023-02-02T01:00:50;15.32;;;9.88;;
31402;SDS011;18039;52.188;21.024;2023-02-02T01:03:18;18.92;;;9.93;;
31402;SDS011;18039;52.188;21.024;2023-02-02T01:05:44;19.23;;;8.70;;
31402;SDS011;18039;52.188;21.024;2023-02-02T01:08:12;15.00;;;8.63;;
31402;SDS011;18039;52.188;21.024;2023-02-02T01:10:39;17.55;;;8.73;;
31402;SDS011;18039;52.188;21.024;2023-02-02T01:13:06;20.17;;;9.80;;
31402;SDS011;18039;52.188;21.024;2023-02-02T01:15:33;14.00;;;8.65;;
31402;SDS011;18039;52.188;21.024;2023-02-02T01:18:00;14.63;;;8.45;;
31402;SDS011;18039;52.188;21.024;2023-02-02T01:20:27;14.45;;;8.82;;
31402;SDS011;18039;52.188;21.024;2023-02-02T01:22:55;14.55;;;8.80;;
31402;SDS011;18039;52.188;21.024;2023-02-02T01:25:22;13.43;;;8.50;;
31402;SDS011;18039;52.188;21.024;2023-02-02T01:27:50;17.95;;;8.60;;
31402;SDS011;18039;52.188;21.024;2023-02-02T01:30:17;15.00;;;8.75;;
31402;SDS011;18039;52.188;21.024;2023-02-02T01:32:44;16.58;;;9.13;;
31402;SDS011;18039;52.188;21.024;2023-02-02T01:35:11;18.35;;;9.35;;
31402;SDS011;18039;52.188;21.024;2023-02-02T01:37:38;17.75;;;9.25;;
31402;SDS011;18039;52.188;21.024;2023-02-02T01:40:05;15.35;;;8.23;;
31402;SDS011;18039;52.188;21.024;2023-02-02T01:42:33;16.65;;;9.38;;
31402;SDS011;18039;52.188;21.024;2023-02-02T01:45:06;17.35;;;8.80;;
31402;SDS011;18039;52.188;21.024;2023-02-02T01:47:44;15.20;;;8.38;;
31402;SDS011;18039;52.188;21.024;2023-02-02T01:50:15;14.40;;;8.75;;
31402;SDS011;18039;52.188;21.024;2023-02-02T01:52:44;18.02;;;8.60;;
31402;SDS011;18039;52.188;21.024;2023-02-02T01:55:15;14.35;;;8.23;;
31402;SDS011;18039;52.188;21.024;2023-02-02T02:00:16;18.02;;;9.80;;
31402;SDS011;18039;52.188;21.024;2023-02-02T02:02:51;16.85;;;8.48;;
31402;SDS011;18039;52.188;21.024;2023-02-02T02:05:26;18.67;;;8.77;;
31402;SDS011;18039;52.188;21.024;2023-02-02T02:07:58;19.02;;;8.73;;
31402;SDS011;18039;52.188;21.024;2023-02-02T02:10:29;17.70;;;9.10;;
31402;SDS011;18039;52.188;21.024;2023-02-02T02:12:57;17.45;;;9.35;;
31402;SDS011;18039;52.188;21.024;2023-02-02T02:15:25;17.02;;;9.35;;
31402;SDS011;18039;52.188;21.024;2023-02-02T02:18:27;16.85;;;8.35;;
31402;SDS011;18039;52.188;21.024;2023-02-02T02:24:16;15.43;;;8.13;;
31402;SDS011;18039;52.188;21.024;2023-02-02T02:36:01;15.48;;;7.57;;
31402;SDS011;18039;52.188;21.024;2023-02-02T02:38:37;13.80;;;6.78;;
31402;SDS011;18039;52.188;21.024;2023-02-02T02:41:11;12.60;;;7.45;;
31402;SDS011;18039;52.188;21.024;2023-02-02T02:43:45;14.48;;;7.43;;
31402;SDS011;18039;52.188;21.024;2023-02-02T02:46:17;10.93;;;6.65;;
31402;SDS011;18039;52.188;21.024;2023-02-02T02:48:45;12.43;;;7.10;;
31402;SDS011;18039;52.188;21.024;2023-02-02T02:56:34;10.13;;;6.35;;
31402;SDS011;18039;52.188;21.024;2023-02-02T02:59:16;13.48;;;7.18;;
31402;SDS011;18039;52.188;21.024;2023-02-02T03:08:03;13.95;;;7.28;;
31402;SDS011;18039;52.188;21.024;2023-02-02T03:10:35;13.68;;;7.72;;
31402;SDS011;18039;52.188;21.024;2023-02-02T03:13:09;16.63;;;8.65;;
31402;SDS011;18039;52.188;21.024;2023-02-02T03:15:44;17.02;;;8.98;;
31402;SDS011;18039;52.188;21.024;2023-02-02T03:18:13;18.23;;;8.82;;
31402;SDS011;18039;52.188;21.024;2023-02-02T03:20:42;24.42;;;9.75;;
31402;SDS011;18039;52.188;21.024;2023-02-02T03:23:11;24.83;;;9.55;;
31402;SDS011;18039;52.188;21.024;2023-02-02T03:25:38;21.17;;;11.10;;
31402;SDS011;18039;52.188;21.024;2023-02-02T03:28:06;28.05;;;10.93;;
31402;SDS011;18039;52.188;21.024;2023-02-02T03:30:33;19.92;;;9.25;;
31402;SDS011;18039;52.188;21.024;2023-02-02T03:33:01;23.13;;;11.05;;
31402;SDS011;18039;52.188;21.024;2023-02-02T03:35:29;28.48;;;9.52;;
31402;SDS011;18039;52.188;21.024;2023-02-02T03:37:57;23.88;;;10.50;;
31402;SDS011;18039;52.188;21.024;2023-02-02T03:40:24;20.98;;;10.13;;
31402;SDS011;18039;52.188;21.024;2023-02-02T03:42:51;30.52;;;9.23;;
31402;SDS011;18039;52.188;21.024;2023-02-02T03:45:18;22.63;;;8.48;;
31402;SDS011;18039;52.188;21.024;2023-02-02T03:47:46;21.13;;;8.65;;
31402;SDS011;18039;52.188;21.024;2023-02-02T03:50:13;26.48;;;8.88;;
31402;SDS011;18039;52.188;21.024;2023-02-02T03:52:40;22.83;;;8.82;;
31402;SDS011;18039;52.188;21.024;2023-02-02T03:55:07;24.10;;;9.43;;
31402;SDS011;18039;52.188;21.024;2023-02-02T03:57:35;27.90;;;8.70;;
31402;SDS011;18039;52.188;21.024;2023-02-02T04:00:02;24.70;;;8.50;;
31402;SDS011;18039;52.188;21.024;2023-02-02T04:02:38;19.85;;;7.75;;
31402;SDS011;18039;52.188;21.024;2023-02-02T04:05:05;19.52;;;8.07;;
31402;SDS011;18039;52.188;21.024;2023-02-02T04:07:32;29.88;;;9.18;;
31402;SDS011;18039;52.188;21.024;2023-02-02T04:09:59;22.45;;;7.80;;
31402;SDS011;18039;52.188;21.024;2023-02-02T04:12:26;21.35;;;7.65;;
31402;SDS011;18039;52.188;21.024;2023-02-02T04:14:53;18.23;;;7.82;;
31402;SDS011;18039;52.188;21.024;2023-02-02T04:17:20;26.63;;;9.80;;
31402;SDS011;18039;52.188;21.024;2023-02-02T04:19:47;20.50;;;8.80;;
31402;SDS011;18039;52.188;21.024;2023-02-02T04:22:14;26.73;;;8.98;;
31402;SDS011;18039;52.188;21.024;2023-02-02T04:24:41;23.13;;;9.00;;
31402;SDS011;18039;52.188;21.024;2023-02-02T04:27:08;20.05;;;8.63;;
31402;SDS011;18039;52.188;21.024;2023-02-02T04:29:36;24.63;;;9.60;;
31402;SDS011;18039;52.188;21.024;2023-02-02T04:32:03;21.98;;;8.00;;
31402;SDS011;18039;52.188;21.024;2023-02-02T04:34:30;25.50;;;8.00;;
31402;SDS011;18039;52.188;21.024;2023-02-02T04:36:57;28.55;;;8.13;;
31402;SDS011;18039;52.188;21.024;2023-02-02T04:39:24;25.85;;;8.25;;
31402;SDS011;18039;52.188;21.024;2023-02-02T04:41:51;24.80;;;7.65;;
31402;SDS011;18039;52.188;21.024;2023-02-02T04:44:18;24.80;;;8.27;;
31402;SDS011;18039;52.188;21.024;2023-02-02T04:46:46;33.15;;;9.93;;
31402;SDS011;18039;52.188;21.024;2023-02-02T04:49:12;23.45;;;7.57;;
31402;SDS011;18039;52.188;21.024;2023-02-02T04:51:40;18.27;;;7.20;;
31402;SDS011;18039;52.188;21.024;2023-02-02T04:54:07;15.05;;;5.90;;
31402;SDS011;18039;52.188;21.024;2023-02-02T04:56:34;18.60;;;5.93;;
31402;SDS011;18039;52.188;21.024;2023-02-02T04:59:01;17.58;;;5.32;;
31402;SDS011;18039;52.188;21.024;2023-02-02T05:01:28;24.35;;;5.82;;
31402;SDS011;18039;52.188;21.024;2023-02-02T05:03:56;17.45;;;5.43;;
31402;SDS011;18039;52.188;21.024;2023-02-02T05:06:23;16.50;;;5.70;;
31402;SDS011;18039;52.188;21.024;2023-02-02T05:08:51;18.08;;;5.80;;
31402;SDS011;18039;52.188;21.024;2023-02-02T05:11:20;23.05;;;7.43;;
31402;SDS011;18039;52.188;21.024;2023-02-02T05:13:50;17.05;;;5.30;;
31402;SDS011;18039;52.188;21.024;2023-02-02T05:16:19;22.65;;;4.90;;
31402;SDS011;18039;52.188;21.024;2023-02-02T05:18:53;21.42;;;4.88;;
31402;SDS011;18039;52.188;21.024;2023-02-02T05:21:22;15.85;;;4.22;;
31402;SDS011;18039;52.188;21.024;2023-02-02T05:23:49;14.85;;;4.40;;
31402;SDS011;18039;52.188;21.024;2023-02-02T05:26:18;16.33;;;4.65;;
31402;SDS011;18039;52.188;21.024;2023-02-02T05:28:48;16.55;;;3.83;;
31402;SDS011;18039;52.188;21.024;2023-02-02T05:31:15;13.85;;;4.50;;
31402;SDS011;18039;52.188;21.024;2023-02-02T05:33:42;14.20;;;3.92;;
31402;SDS011;18039;52.188;21.024;2023-02-02T05:36:10;11.77;;;3.38;;
31402;SDS011;18039;52.188;21.024;2023-02-02T05:38:37;11.55;;;3.67;;
31402;SDS011;18039;52.188;21.024;2023-02-02T05:41:04;11.45;;;3.38;;
31402;SDS011;18039;52.188;21.024;2023-02-02T05:43:31;18.33;;;4.40;;
31402;SDS011;18039;52.188;21.024;2023-02-02T05:45:59;28.38;;;5.20;;
31402;SDS011;18039;52.188;21.024;2023-02-02T05:48:27;17.80;;;3.22;;
31402;SDS011;18039;52.188;21.024;2023-02-02T05:51:17;15.32;;;3.85;;
31402;SDS011;18039;52.188;21.024;2023-02-02T05:53:44;16.92;;;4.55;;
31402;SDS011;18039;52.188;21.024;2023-02-02T05:56:12;17.75;;;3.92;;
31402;SDS011;18039;52.188;21.024;2023-02-02T05:58:41;18.13;;;4.43;;
31402;SDS011;18039;52.188;21.024;2023-02-02T06:01:10;11.65;;;3.33;;
31402;SDS011;18039;52.188;21.024;2023-02-02T06:03:37;16.15;;;3.25;;
31402;SDS011;18039;52.188;21.024;2023-02-02T06:06:04;15.15;;;3.40;;
31402;SDS011;18039;52.188;21.024;2023-02-02T06:08:33;13.45;;;4.05;;
31402;SDS011;18039;52.188;21.024;2023-02-02T06:11:11;12.13;;;4.47;;
31402;SDS011;18039;52.188;21.024;2023-02-02T06:13:39;12.35;;;3.53;;
31402;SDS011;18039;52.188;21.024;2023-02-02T06:16:07;13.85;;;4.18;;
31402;SDS011;18039;52.188;21.024;2023-02-02T06:18:35;17.60;;;4.88;;
31402;SDS011;18039;52.188;21.024;2023-02-02T06:21:03;19.00;;;4.40;;
31402;SDS011;18039;52.188;21.024;2023-02-02T06:23:32;15.15;;;4.75;;
31402;SDS011;18039;52.188;21.024;2023-02-02T06:26:01;13.63;;;5.93;;
31402;SDS011;18039;52.188;21.024;2023-02-02T06:28:30;13.98;;;4.35;;
31402;SDS011;18039;52.188;21.024;2023-02-02T06:31:04;19.38;;;5.05;;
31402;SDS011;18039;52.188;21.024;2023-02-02T06:33:32;14.32;;;3.85;;
31402;SDS011;18039;52.188;21.024;2023-02-02T06:36:00;16.52;;;4.80;;
31402;SDS011;18039;52.188;21.024;2023-02-02T06:38:29;12.32;;;4.85;;
31402;SDS011;18039;52.188;21.024;2023-02-02T06:40:59;11.07;;;4.28;;
31402;SDS011;18039;52.188;21.024;2023-02-02T06:43:29;13.85;;;4.93;;
31402;SDS011;18039;52.188;21.024;2023-02-02T06:45:57;13.98;;;5.35;;
31402;SDS011;18039;52.188;21.024;2023-02-02T06:48:25;8.93;;;3.60;;
31402;SDS011;18039;52.188;21.024;2023-02-02T06:50:52;17.95;;;4.70;;
31402;SDS011;18039;52.188;21.024;2023-02-02T06:53:19;9.60;;;4.35;;
31402;SDS011;18039;52.188;21.024;2023-02-02T06:55:56;13.55;;;4.28;;
31402;SDS011;18039;52.188;21.024;2023-02-02T06:58:26;11.90;;;4.55;;
31402;SDS011;18039;52.188;21.024;2023-02-02T07:00:54;20.45;;;4.43;;
31402;SDS011;18039;52.188;21.024;2023-02-02T07:03:21;11.93;;;4.53;;
31402;SDS011;18039;52.188;21.024;2023-02-02T07:05:48;13.55;;;4.20;;
31402;SDS011;18039;52.188;21.024;2023-02-02T07:08:16;16.92;;;4.35;;
31402;SDS011;18039;52.188;21.024;2023-02-02T07:10:43;11.88;;;4.63;;
31402;SDS011;18039;52.188;21.024;2023-02-02T07:13:30;16.45;;;5.55;;
31402;SDS011;18039;52.188;21.024;2023-02-02T07:15:57;10.65;;;4.68;;
31402;SDS011;18039;52.188;21.024;2023-02-02T07:18:24;16.05;;;5.10;;
31402;SDS011;18039;52.188;21.024;2023-02-02T07:20:51;10.75;;;4.53;;
31402;SDS011;18039;52.188;21.024;2023-02-02T07:23:18;17.98;;;6.03;;
31402;SDS011;18039;52.188;21.024;2023-02-02T07:25:46;15.93;;;5.60;;
31402;SDS011;18039;52.188;21.024;2023-02-02T07:28:13;13.43;;;5.43;;
31402;SDS011;18039;52.188;21.024;2023-02-02T07:30:40;13.68;;;4.82;;
31402;SDS011;18039;52.188;21.024;2023-02-02T07:33:07;13.35;;;5.95;;
31402;SDS011;18039;52.188;21.024;2023-02-02T07:35:34;13.35;;;5.00;;
31402;SDS011;18039;52.188;21.024;2023-02-02T07:38:01;19.17;;;6.82;;
31402;SDS011;18039;52.188;21.024;2023-02-02T07:40:28;12.55;;;5.60;;
31402;SDS011;18039;52.188;21.024;2023-02-02T07:42:55;9.75;;;5.20;;
31402;SDS011;18039;52.188;21.024;2023-02-02T07:45:26;15.35;;;6.30;;
31402;SDS011;18039;52.188;21.024;2023-02-02T07:47:54;18.95;;;6.38;;
31402;SDS011;18039;52.188;21.024;2023-02-02T07:50:25;13.55;;;6.35;;
31402;SDS011;18039;52.188;21.024;2023-02-02T07:52:54;13.73;;;6.03;;
31402;SDS011;18039;52.188;21.024;2023-02-02T07:55:21;18.42;;;6.80;;
31402;SDS011;18039;52.188;21.024;2023-02-02T07:57:50;13.82;;;6.13;;
31402;SDS011;18039;52.188;21.024;2023-02-02T08:00:20;15.10;;;5.63;;
31402;SDS011;18039;52.188;21.024;2023-02-02T08:02:48;15.98;;;5.65;;
31402;SDS011;18039;52.188;21.024;2023-02-02T08:05:15;13.20;;;5.72;;
31402;SDS011;18039;52.188;21.024;2023-02-02T08:07:42;10.13;;;4.90;;
31402;SDS011;18039;52.188;21.024;2023-02-02T08:10:14;10.68;;;4.78;;
31402;SDS011;18039;52.188;21.024;2023-02-02T08:12:41;14.82;;;5.88;;
31402;SDS011;18039;52.188;21.024;2023-02-02T08:15:08;13.63;;;5.25;;
31402;SDS011;18039;52.188;21.024;2023-02-02T08:17:38;14.50;;;5.22;;
31402;SDS011;18039;52.188;21.024;2023-02-02T08:20:05;11.18;;;5.68;;
31402;SDS011;18039;52.188;21.024;2023-02-02T08:22:33;11.05;;;5.68;;
31402;SDS011;18039;52.188;21.024;2023-02-02T08:25:00;9.85;;;4.90;;
31402;SDS011;18039;52.188;21.024;2023-02-02T08:27:27;14.25;;;7.20;;
31402;SDS011;18039;52.188;21.024;2023-02-02T08:29:55;15.38;;;5.72;;
31402;SDS011;18039;52.188;21.024;2023-02-02T08:32:22;7.55;;;4.25;;
31402;SDS011;18039;52.188;21.024;2023-02-02T08:34:49;8.48;;;4.22;;
31402;SDS011;18039;52.188;21.024;2023-02-02T08:37:17;6.65;;;4.38;;
31402;SDS011;18039;52.188;21.024;2023-02-02T08:39:45;12.07;;;4.43;;
31402;SDS011;18039;52.188;21.024;2023-02-02T08:42:12;5.93;;;3.10;;
31402;SDS011;18039;52.188;21.024;2023-02-02T08:44:39;10.07;;;4.38;;
31402;SDS011;18039;52.188;21.024;2023-02-02T08:47:28;7.97;;;4.45;;
31402;SDS011;18039;52.188;21.024;2023-02-02T08:54:19;6.57;;;3.60;;
31402;SDS011;18039;52.188;21.024;2023-02-02T08:56:46;7.18;;;3.40;;
31402;SDS011;18039;52.188;21.024;2023-02-02T08:59:14;8.25;;;3.80;;
31402;SDS011;18039;52.188;21.024;2023-02-02T09:01:41;8.60;;;4.13;;
31402;SDS011;18039;52.188;21.024;2023-02-02T09:04:12;9.05;;;4.85;;
31402;SDS011;18039;52.188;21.024;2023-02-02T09:06:41;5.65;;;3.50;;
31402;SDS011;18039;52.188;21.024;2023-02-02T09:09:11;7.22;;;3.83;;
31402;SDS011;18039;52.188;21.024;2023-02-02T09:11:40;8.32;;;4.18;;
31402;SDS011;18039;52.188;21.024;2023-02-02T09:14:08;10.65;;;4.93;;
31402;SDS011;18039;52.188;21.024;2023-02-02T09:16:37;6.93;;;4.15;;
31402;SDS011;18039;52.188;21.024;2023-02-02T09:19:05;8.70;;;4.15;;
31402;SDS011;18039;52.188;21.024;2023-02-02T09:21:32;9.55;;;5.05;;
31402;SDS011;18039;52.188;21.024;2023-02-02T09:24:07;11.02;;;5.22;;
31402;SDS011;18039;52.188;21.024;2023-02-02T09:26:36;8.88;;;5.13;;
31402;SDS011;18039;52.188;21.024;2023-02-02T09:29:06;14.45;;;5.47;;
31402;SDS011;18039;52.188;21.024;2023-02-02T09:31:36;9.27;;;5.00;;
31402;SDS011;18039;52.188;21.024;2023-02-02T09:34:08;10.85;;;5.50;;
31402;SDS011;18039;52.188;21.024;2023-02-02T09:36:38;10.55;;;4.43;;
31402;SDS011;18039;52.188;21.024;2023-02-02T09:39:06;17.65;;;7.18;;
31402;SDS011;18039;52.188;21.024;2023-02-02T09:52:41;12.32;;;6.35;;
31402;SDS011;18039;52.188;21.024;2023-02-02T10:00:45;11.55;;;6.00;;
31402;SDS011;18039;52.188;21.024;2023-02-02T10:05:54;12.25;;;6.50;;
31402;SDS011;18039;52.188;21.024;2023-02-02T10:08:35;10.10;;;6.25;;
31402;SDS011;18039;52.188;21.024;2023-02-02T10:11:22;12.63;;;5.38;;
31402;SDS011;18039;52.188;21.024;2023-02-02T10:13:58;9.38;;;6.15;;
31402;SDS011;18039;52.188;21.024;2023-02-02T10:16:30;11.40;;;5.45;;
31402;SDS011;18039;52.188;21.024;2023-02-02T10:19:02;10.32;;;5.68;;
31402;SDS011;18039;52.188;21.024;2023-02-02T10:21:48;11.10;;;6.20;;
31402;SDS011;18039;52.188;21.024;2023-02-02T10:24:21;10.18;;;6.43;;
31402;SDS011;18039;52.188;21.024;2023-02-02T10:26:54;10.23;;;5.55;;
31402;SDS011;18039;52.188;21.024;2023-02-02T10:29:29;8.95;;;5.63;;
31402;SDS011;18039;52.188;21.024;2023-02-02T10:32:24;10.50;;;5.07;;
31402;SDS011;18039;52.188;21.024;2023-02-02T10:35:22;7.32;;;4.97;;
31402;SDS011;18039;52.188;21.024;2023-02-02T10:43:34;7.25;;;5.18;;
31402;SDS011;18039;52.188;21.024;2023-02-02T10:49:14;10.80;;;5.82;;
31402;SDS011;18039;52.188;21.024;2023-02-02T10:54:33;7.72;;;4.72;;
31402;SDS011;18039;52.188;21.024;2023-02-02T10:57:29;8.70;;;4.20;;
31402;SDS011;18039;52.188;21.024;2023-02-02T11:02:58;8.88;;;5.10;;
31402;SDS011;18039;52.188;21.024;2023-02-02T11:05:31;8.48;;;4.85;;
31402;SDS011;18039;52.188;21.024;2023-02-02T11:10:45;8.55;;;4.70;;
31402;SDS011;18039;52.188;21.024;2023-02-02T11:13:20;8.90;;;4.23;;
31402;SDS011;18039;52.188;21.024;2023-02-02T11:18:43;6.25;;;4.25;;
31402;SDS011;18039;52.188;21.024;2023-02-02T11:21:21;5.70;;;3.92;;
31402;SDS011;18039;52.188;21.024;2023-02-02T11:23:50;5.22;;;3.90;;
31402;SDS011;18039;52.188;21.024;2023-02-02T11:26:44;6.63;;;4.32;;
31402;SDS011;18039;52.188;21.024;2023-02-02T11:29:17;10.07;;;4.55;;
31402;SDS011;18039;52.188;21.024;2023-02-02T11:31:52;8.00;;;4.72;;
31402;SDS011;18039;52.188;21.024;2023-02-02T11:34:23;8.27;;;4.57;;
31402;SDS011;18039;52.188;21.024;2023-02-02T11:37:09;10.45;;;5.25;;
31402;SDS011;18039;52.188;21.024;2023-02-02T11:39:39;8.57;;;5.15;;
31402;SDS011;18039;52.188;21.024;2023-02-02T11:42:12;10.43;;;5.50;;
31402;SDS011;18039;52.188;21.024;2023-02-02T11:44:52;10.05;;;5.88;;
31402;SDS011;18039;52.188;21.024;2023-02-02T11:47:29;9.65;;;6.72;;
31402;SDS011;18039;52.188;21.024;2023-02-02T11:49:59;9.25;;;5.70;;
31402;SDS011;18039;52.188;21.024;2023-02-02T11:52:30;11.38;;;6.20;;
31402;SDS011;18039;52.188;21.024;2023-02-02T11:54:59;15.15;;;7.35;;
31402;SDS011;18039;52.188;21.024;2023-02-02T11:57:35;14.93;;;8.20;;
31402;SDS011;18039;52.188;21.024;2023-02-02T12:02:35;16.75;;;8.75;;
31402;SDS011;18039;52.188;21.024;2023-02-02T12:07:36;17.17;;;8.02;;
31402;SDS011;18039;52.188;21.024;2023-02-02T12:10:10;16.52;;;7.97;;
31402;SDS011;18039;52.188;21.024;2023-02-02T12:21:37;12.60;;;7.43;;
31402;SDS011;18039;52.188;21.024;2023-02-02T12:26:55;14.88;;;8.82;;
31402;SDS011;18039;52.188;21.024;2023-02-02T12:29:43;13.25;;;7.55;;
31402;SDS011;18039;52.188;21.024;2023-02-02T12:32:25;14.50;;;7.93;;
31402;SDS011;18039;52.188;21.024;2023-02-02T12:35:10;15.63;;;8.50;;
31402;SDS011;18039;52.188;21.024;2023-02-02T12:38:14;16.33;;;8.18;;
31402;SDS011;18039;52.188;21.024;2023-02-02T12:43:50;14.10;;;6.78;;
31402;SDS011;18039;52.188;21.024;2023-02-02T12:49:12;15.52;;;7.22;;
31402;SDS011;18039;52.188;21.024;2023-02-02T12:58:14;12.88;;;6.22;;
31402;SDS011;18039;52.188;21.024;2023-02-02T13:04:22;8.82;;;4.97;;
31402;SDS011;18039;52.188;21.024;2023-02-02T13:12:49;10.85;;;6.50;;
31402;SDS011;18039;52.188;21.024;2023-02-02T13:15:21;9.43;;;4.85;;
31402;SDS011;18039;52.188;21.024;2023-02-02T13:17:58;9.35;;;5.43;;
31402;SDS011;18039;52.188;21.024;2023-02-02T13:23:22;11.95;;;5.10;;
31402;SDS011;18039;52.188;21.024;2023-02-02T13:25:59;8.07;;;4.63;;
31402;SDS011;18039;52.188;21.024;2023-02-02T13:31:37;7.45;;;4.18;;
31402;SDS011;18039;52.188;21.024;2023-02-02T13:34:20;8.13;;;4.65;;
31402;SDS011;18039;52.188;21.024;2023-02-02T13:40:19;7.97;;;4.00;;
31402;SDS011;18039;52.188;21.024;2023-02-02T13:59:28;7.20;;;4.03;;
31402;SDS011;18039;52.188;21.024;2023-02-02T14:02:19;6.35;;;4.10;;
31402;SDS011;18039;52.188;21.024;2023-02-02T14:04:53;6.68;;;3.60;;
31402;SDS011;18039;52.188;21.024;2023-02-02T14:07:33;8.98;;;3.58;;
31402;SDS011;18039;52.188;21.024;2023-02-02T14:13:04;6.10;;;3.72;;
31402;SDS011;18039;52.188;21.024;2023-02-02T14:16:02;7.17;;;4.30;;
31402;SDS011;18039;52.188;21.024;2023-02-02T14:34:44;10.30;;;4.50;;
31402;SDS011;18039;52.188;21.024;2023-02-02T14:45:46;6.00;;;4.10;;
31402;SDS011;18039;52.188;21.024;2023-02-02T14:50:56;9.68;;;4.43;;
31402;SDS011;18039;52.188;21.024;2023-02-02T14:53:27;10.43;;;4.85;;
31402;SDS011;18039;52.188;21.024;2023-02-02T14:56:09;6.03;;;3.50;;
31402;SDS011;18039;52.188;21.024;2023-02-02T15:03:54;6.40;;;4.10;;
31402;SDS011;18039;52.188;21.024;2023-02-02T15:06:30;7.00;;;3.88;;
31402;SDS011;18039;52.188;21.024;2023-02-02T15:14:49;7.10;;;4.00;;
31402;SDS011;18039;52.188;21.024;2023-02-02T15:23:05;7.68;;;4.47;;
31402;SDS011;18039;52.188;21.024;2023-02-02T15:28:07;4.88;;;3.10;;
31402;SDS011;18039;52.188;21.024;2023-02-02T15:30:59;6.03;;;3.72;;
31402;SDS011;18039;52.188;21.024;2023-02-02T15:33:38;7.50;;;4.07;;
31402;SDS011;18039;52.188;21.024;2023-02-02T15:38:41;3.45;;;1.90;;
31402;SDS011;18039;52.188;21.024;2023-02-02T15:43:48;3.50;;;1.90;;
31402;SDS011;18039;52.188;21.024;2023-02-02T15:46:21;4.07;;;1.70;;
31402;SDS011;18039;52.188;21.024;2023-02-02T15:52:03;4.65;;;2.20;;
31402;SDS011;18039;52.188;21.024;2023-02-02T15:54:41;3.30;;;1.95;;
31402;SDS011;18039;52.188;21.024;2023-02-02T15:57:27;5.22;;;2.20;;
31402;SDS011;18039;52.188;21.024;2023-02-02T15:59:59;2.65;;;1.60;;
31402;SDS011;18039;52.188;21.024;2023-02-02T16:02:38;4.85;;;2.13;;
31402;SDS011;18039;52.188;21.024;2023-02-02T16:07:57;2.92;;;1.83;;
31402;SDS011;18039;52.188;21.024;2023-02-02T16:10:33;2.85;;;2.10;;
31402;SDS011;18039;52.188;21.024;2023-02-02T16:13:01;4.05;;;2.20;;
31402;SDS011;18039;52.188;21.024;2023-02-02T16:15:29;5.05;;;2.38;;
31402;SDS011;18039;52.188;21.024;2023-02-02T16:18:04;10.25;;;2.70;;
31402;SDS011;18039;52.188;21.024;2023-02-02T16:20:34;7.15;;;3.10;;
31402;SDS011;18039;52.188;21.024;2023-02-02T16:23:04;4.70;;;3.00;;
31402;SDS011;18039;52.188;21.024;2023-02-02T16:25:46;5.47;;;2.95;;
31402;SDS011;18039;52.188;21.024;2023-02-02T16:28:16;5.57;;;3.13;;
31402;SDS011;18039;52.188;21.024;2023-02-02T16:30:46;8.00;;;3.83;;
31402;SDS011;18039;52.188;21.024;2023-02-02T16:33:33;4.22;;;3.00;;
31402;SDS011;18039;52.188;21.024;2023-02-02T16:36:02;4.53;;;3.00;;
31402;SDS011;18039;52.188;21.024;2023-02-02T16:38:51;3.70;;;2.70;;
31402;SDS011;18039;52.188;21.024;2023-02-02T16:47:06;5.88;;;2.45;;
31402;SDS011;18039;52.188;21.024;2023-02-02T16:49:38;4.53;;;2.35;;
31402;SDS011;18039;52.188;21.024;2023-02-02T16:52:07;4.75;;;2.35;;
31402;SDS011;18039;52.188;21.024;2023-02-02T16:54:38;5.63;;;2.40;;
31402;SDS011;18039;52.188;21.024;2023-02-02T16:57:16;3.50;;;2.45;;
31402;SDS011;18039;52.188;21.024;2023-02-02T16:59:47;4.25;;;2.80;;
31402;SDS011;18039;52.188;21.024;2023-02-02T17:02:18;5.60;;;2.60;;
31402;SDS011;18039;52.188;21.024;2023-02-02T17:04:59;5.63;;;2.60;;
31402;SDS011;18039;52.188;21.024;2023-02-02T17:07:28;5.37;;;3.10;;
31402;SDS011;18039;52.188;21.024;2023-02-02T17:10:19;5.78;;;2.42;;
31402;SDS011;18039;52.188;21.024;2023-02-02T17:12:50;6.18;;;2.92;;
31402;SDS011;18039;52.188;21.024;2023-02-02T17:17:45;5.15;;;3.03;;
31402;SDS011;18039;52.188;21.024;2023-02-02T17:20:15;6.60;;;3.05;;
31402;SDS011;18039;52.188;21.024;2023-02-02T17:22:43;8.15;;;3.63;;
31402;SDS011;18039;52.188;21.024;2023-02-02T17:25:18;6.30;;;3.40;;
31402;SDS011;18039;52.188;21.024;2023-02-02T17:28:12;5.85;;;3.40;;
31402;SDS011;18039;52.188;21.024;2023-02-02T17:30:42;8.55;;;4.10;;
31402;SDS011;18039;52.188;21.024;2023-02-02T17:33:11;8.50;;;3.83;;
31402;SDS011;18039;52.188;21.024;2023-02-02T17:35:43;7.38;;;4.30;;
31402;SDS011;18039;52.188;21.024;2023-02-02T17:38:22;7.55;;;4.20;;
31402;SDS011;18039;52.188;21.024;2023-02-02T17:40:50;9.00;;;4.75;;
31402;SDS011;18039;52.188;21.024;2023-02-02T17:43:18;7.85;;;4.60;;
31402;SDS011;18039;52.188;21.024;2023-02-02T17:45:46;8.95;;;4.18;;
31402;SDS011;18039;52.188;21.024;2023-02-02T17:48:13;7.60;;;4.30;;
31402;SDS011;18039;52.188;21.024;2023-02-02T17:50:41;8.43;;;4.63;;
31402;SDS011;18039;52.188;21.024;2023-02-02T17:53:09;7.78;;;4.50;;
31402;SDS011;18039;52.188;21.024;2023-02-02T17:55:40;9.35;;;5.38;;
31402;SDS011;18039;52.188;21.024;2023-02-02T17:58:08;7.78;;;4.70;;
31402;SDS011;18039;52.188;21.024;2023-02-02T18:00:39;12.27;;;5.13;;
31402;SDS011;18039;52.188;21.024;2023-02-02T18:05:45;9.50;;;5.10;;
31402;SDS011;18039;52.188;21.024;2023-02-02T18:08:12;9.25;;;4.88;;
31402;SDS011;18039;52.188;21.024;2023-02-02T18:10:40;8.52;;;4.43;;
31402;SDS011;18039;52.188;21.024;2023-02-02T18:13:14;10.55;;;4.07;;
31402;SDS011;18039;52.188;21.024;2023-02-02T18:15:43;6.60;;;4.40;;
31402;SDS011;18039;52.188;21.024;2023-02-02T18:18:11;7.53;;;4.13;;